Time;durP1;ratioP1;P1;durP2;ratioP2;P2;SDS_P1;SDS_P2;PMS_P1;PMS_P2;Temp;Humidity;BMP_temperature;BMP_pressure;BME280_temperature;BME280_humidity;BME280_pressure;Samples;Min_cycle;Max_cycle;Signal;HPM_P1;HPM_P2
2022/05/11 00:02:27;;;;;;;21.10;11.45;;;;;;;;;;5052346;28;20052;-74
2022/05/11 00:05:32;;;;;;;22.27;11.55;;;;;;;;;;5028825;28;20044;-74
2022/05/11 00:08:36;;;;;;;20.02;11.38;;;;;;;;;;5052095;28;20504;-74
2022/05/11 00:11:42;;;;;;;24.85;12.20;;;;;;;;;;5028409;28;20036;-74
2022/05/11 00:14:46;;;;;;;17.67;11.48;;;;;;;;;;5052550;28;20147;-74
2022/05/11 00:17:51;;;;;;;19.70;12.68;;;;;;;;;;5051844;28;20036;-74
2022/05/11 00:20:55;;;;;;;34.08;18.45;;;;;;;;;;5052153;28;20063;-73
2022/05/11 00:24:00;;;;;;;37.92;19.73;;;;;;;;;;5052101;28;20521;-73
2022/05/11 00:27:04;;;;;;;41.65;22.45;;;;;;;;;;5040025;28;20048;-73
2022/05/11 00:30:09;;;;;;;35.78;21.08;;;;;;;;;;5051992;28;20052;-73
2022/05/11 00:33:14;;;;;;;40.35;24.00;;;;;;;;;;5051573;28;20048;-73
2022/05/11 00:36:18;;;;;;;39.63;23.73;;;;;;;;;;5051761;28;20368;-73
2022/05/11 00:39:23;;;;;;;35.85;24.02;;;;;;;;;;5051661;28;20527;-73
2022/05/11 00:42:27;;;;;;;40.80;24.10;;;;;;;;;;5051748;28;20405;-73
2022/05/11 00:45:32;;;;;;;45.45;24.30;;;;;;;;;;5051573;28;20067;-73
2022/05/11 00:52:02;;;;;;;31.80;16.58;;;;;;;;;;5051616;28;20048;-72
2022/05/11 00:55:09;;;;;;;26.85;15.30;;;;;;;;;;5051747;28;20048;-73
2022/05/11 00:58:13;;;;;;;24.23;15.20;;;;;;;;;;5051235;28;20228;-73
2022/05/11 01:01:18;;;;;;;27.52;16.33;;;;;;;;;;5050595;28;20527;-73
2022/05/11 01:04:22;;;;;;;24.13;14.60;;;;;;;;;;5051414;28;20111;-73
2022/05/11 01:07:26;;;;;;;26.23;13.60;;;;;;;;;;5051141;28;20076;-73
2022/05/11 01:10:32;;;;;;;23.42;14.25;;;;;;;;;;5050620;28;20073;-73
2022/05/11 01:13:38;;;;;;;28.20;13.68;;;;;;;;;;5050959;28;20535;-73
2022/05/11 01:16:43;;;;;;;24.58;12.00;;;;;;;;;;5051326;28;20048;-73
2022/05/11 01:19:47;;;;;;;23.92;10.73;;;;;;;;;;5038725;28;20496;-73
2022/05/11 01:23:01;;;;;;;23.77;11.95;;;;;;;;;;5050956;28;20040;-73
2022/05/11 01:26:06;;;;;;;21.35;11.20;;;;;;;;;;5050945;28;20372;-73
2022/05/11 01:29:10;;;;;;;20.75;10.13;;;;;;;;;;5051059;28;20047;-73
2022/05/11 01:32:15;;;;;;;22.08;10.05;;;;;;;;;;5051159;28;20055;-73
2022/05/11 01:35:25;;;;;;;22.65;9.82;;;;;;;;;;5050868;28;20043;-73
2022/05/11 01:38:46;;;;;;;18.38;8.88;;;;;;;;;;5050755;28;20041;-73
2022/05/11 01:41:51;;;;;;;19.42;9.52;;;;;;;;;;5050472;28;20045;-73
2022/05/11 01:44:56;;;;;;;14.95;9.93;;;;;;;;;;5050909;28;20108;-73
2022/05/11 01:48:00;;;;;;;20.77;10.25;;;;;;;;;;5038287;28;20041;-73
2022/05/11 01:51:04;;;;;;;16.83;8.85;;;;;;;;;;5050353;28;20409;-73
2022/05/11 01:54:09;;;;;;;21.17;8.77;;;;;;;;;;5050507;28;20037;-73
2022/05/11 01:57:13;;;;;;;18.17;9.98;;;;;;;;;;5050552;28;20044;-73
2022/05/11 02:00:17;;;;;;;28.05;11.13;;;;;;;;;;5050207;28;20052;-73
2022/05/11 02:03:22;;;;;;;27.30;14.40;;;;;;;;;;5050515;28;20040;-73
2022/05/11 02:09:49;;;;;;;29.15;13.88;;;;;;;;;;5049720;28;20103;-73
2022/05/11 02:12:55;;;;;;;24.20;13.52;;;;;;;;;;5050457;28;20429;-73
2022/05/11 02:16:00;;;;;;;23.48;13.05;;;;;;;;;;5050199;28;20040;-73
2022/05/11 02:19:05;;;;;;;26.35;11.68;;;;;;;;;;5038059;28;20124;-73
2022/05/11 02:22:09;;;;;;;19.38;11.32;;;;;;;;;;5050413;28;20056;-73
2022/05/11 02:25:15;;;;;;;21.15;11.48;;;;;;;;;;5053646;28;20040;-73
2022/05/11 02:28:21;;;;;;;20.25;11.73;;;;;;;;;;5054425;28;20483;-73
2022/05/11 02:31:26;;;;;;;23.08;11.68;;;;;;;;;;5053441;28;20044;-73
2022/05/11 02:37:59;;;;;;;24.33;11.75;;;;;;;;;;5053091;28;20500;-73
2022/05/11 02:41:04;;;;;;;24.38;12.05;;;;;;;;;;5053893;28;20149;-73
2022/05/11 02:44:09;;;;;;;19.27;11.75;;;;;;;;;;5053918;28;20048;-73
2022/05/11 02:47:13;;;;;;;20.38;11.80;;;;;;;;;;5053959;28;20040;-74
2022/05/11 02:50:20;;;;;;;23.38;11.43;;;;;;;;;;5053182;28;20108;-74
2022/05/11 02:53:25;;;;;;;22.65;11.15;;;;;;;;;;5041564;28;20052;-74
2022/05/11 02:56:30;;;;;;;17.83;10.93;;;;;;;;;;5053501;28;20051;-74
2022/05/11 02:59:34;;;;;;;19.75;10.88;;;;;;;;;;5053687;28;20060;-74
2022/05/11 03:02:38;;;;;;;28.75;11.27;;;;;;;;;;5053494;28;20048;-74
2022/05/11 03:05:43;;;;;;;22.20;11.00;;;;;;;;;;5053142;28;20048;-74
2022/05/11 03:08:47;;;;;;;23.70;11.23;;;;;;;;;;5052994;28;20059;-74
2022/05/11 03:11:52;;;;;;;17.33;10.43;;;;;;;;;;5029573;28;20056;-74
2022/05/11 03:14:57;;;;;;;19.48;11.25;;;;;;;;;;5052127;28;20097;-74
2022/05/11 03:18:02;;;;;;;20.90;12.32;;;;;;;;;;5040092;28;20044;-74
2022/05/11 03:21:06;;;;;;;20.60;11.88;;;;;;;;;;5052469;28;20056;-74
2022/05/11 03:24:10;;;;;;;21.58;12.85;;;;;;;;;;5052847;28;20527;-74
2022/05/11 03:27:15;;;;;;;21.35;11.77;;;;;;;;;;5051721;28;20052;-74
2022/05/11 03:30:19;;;;;;;24.40;11.20;;;;;;;;;;5052515;28;20051;-74
2022/05/11 03:36:47;;;;;;;18.23;11.38;;;;;;;;;;5050761;28;20040;-74
2022/05/11 03:39:51;;;;;;;19.25;11.05;;;;;;;;;;5052196;28;20044;-74
2022/05/11 03:42:56;;;;;;;19.85;9.50;;;;;;;;;;5052717;28;20048;-74
2022/05/11 03:46:01;;;;;;;16.42;10.05;;;;;;;;;;5053270;28;20041;-74
2022/05/11 03:49:05;;;;;;;19.48;9.38;;;;;;;;;;5051965;28;20040;-74
2022/05/11 03:52:12;;;;;;;16.50;9.52;;;;;;;;;;5052390;28;20037;-74
2022/05/11 03:55:17;;;;;;;19.10;9.05;;;;;;;;;;5052533;28;20518;-75
2022/05/11 03:58:21;;;;;;;18.92;9.95;;;;;;;;;;5052532;28;20180;-75
2022/05/11 04:01:26;;;;;;;23.23;9.52;;;;;;;;;;5040260;28;20532;-75
2022/05/11 04:04:31;;;;;;;19.15;10.65;;;;;;;;;;5052687;28;20393;-75
2022/05/11 04:07:35;;;;;;;15.05;10.23;;;;;;;;;;5052047;28;20048;-75
2022/05/11 04:10:40;;;;;;;16.83;10.73;;;;;;;;;;5051333;28;20531;-75
2022/05/11 04:13:44;;;;;;;20.98;12.60;;;;;;;;;;5052633;28;20349;-74
2022/05/11 04:16:59;;;;;;;24.08;14.93;;;;;;;;;;5052272;28;20044;-75
2022/05/11 04:20:04;;;;;;;31.70;15.57;;;;;;;;;;5051311;28;20523;-74
2022/05/11 04:23:09;;;;;;;27.08;15.07;;;;;;;;;;5051937;28;20108;-74
2022/05/11 04:26:13;;;;;;;25.05;12.18;;;;;;;;;;5051217;28;20056;-75
2022/05/11 04:29:18;;;;;;;30.10;12.82;;;;;;;;;;5051878;28;20044;-75
2022/05/11 04:32:22;;;;;;;31.08;13.23;;;;;;;;;;5051605;28;20040;-75
2022/05/11 04:35:30;;;;;;;23.60;13.40;;;;;;;;;;5051866;28;20036;-75
2022/05/11 04:38:34;;;;;;;22.17;12.15;;;;;;;;;;5050763;28;20385;-74
2022/05/11 04:41:38;;;;;;;25.35;11.90;;;;;;;;;;5051714;28;20119;-74
2022/05/11 04:44:43;;;;;;;24.42;10.65;;;;;;;;;;5051762;28;20036;-74
2022/05/11 04:47:48;;;;;;;17.63;9.68;;;;;;;;;;5050458;28;20048;-75
2022/05/11 04:50:52;;;;;;;20.13;9.55;;;;;;;;;;5051443;28;20045;-74
2022/05/11 04:53:56;;;;;;;19.70;8.90;;;;;;;;;;5050843;28;20043;-74
2022/05/11 04:57:00;;;;;;;25.90;9.40;;;;;;;;;;5051439;28;20037;-73
2022/05/11 05:00:09;;;;;;;17.45;8.40;;;;;;;;;;5050521;28;20041;-73
2022/05/11 05:03:14;;;;;;;15.85;7.65;;;;;;;;;;5051646;28;20045;-74
2022/05/11 05:06:18;;;;;;;17.30;8.32;;;;;;;;;;5051451;28;20041;-75
2022/05/11 05:09:23;;;;;;;20.70;9.50;;;;;;;;;;5051141;28;20520;-75
2022/05/11 05:12:27;;;;;;;23.42;9.68;;;;;;;;;;5051002;28;20043;-75
2022/05/11 05:15:32;;;;;;;18.58;9.13;;;;;;;;;;5050473;28;20040;-74
2022/05/11 05:18:36;;;;;;;17.52;8.45;;;;;;;;;;5051038;28;20033;-74
2022/05/11 05:21:41;;;;;;;19.10;8.75;;;;;;;;;;5051085;28;20048;-71
2022/05/11 05:24:45;;;;;;;20.77;10.20;;;;;;;;;;5051450;28;20037;-70
2022/05/11 05:27:50;;;;;;;22.15;9.63;;;;;;;;;;5050895;28;20051;-68
2022/05/11 05:31:09;;;;;;;16.67;8.60;;;;;;;;;;5050795;28;20048;-71
2022/05/11 05:34:13;;;;;;;24.65;9.75;;;;;;;;;;5050054;28;20515;-69
2022/05/11 05:37:18;;;;;;;22.40;8.90;;;;;;;;;;5050739;28;20041;-72
2022/05/11 05:40:23;;;;;;;32.63;9.35;;;;;;;;;;5050742;28;20045;-70
2022/05/11 05:43:27;;;;;;;35.50;9.75;;;;;;;;;;5049959;28;20040;-70
2022/05/11 05:46:31;;;;;;;54.58;12.05;;;;;;;;;;5050673;28;20060;-72
2022/05/11 05:49:36;;;;;;;23.70;10.68;;;;;;;;;;5050354;28;20044;-69
2022/05/11 05:52:40;;;;;;;24.55;10.07;;;;;;;;;;5049998;28;20044;-70
2022/05/11 05:55:44;;;;;;;34.05;10.63;;;;;;;;;;5050633;28;20052;-70
2022/05/11 05:58:49;;;;;;;31.83;11.88;;;;;;;;;;5051448;28;20044;-71
2022/05/11 06:01:53;;;;;;;21.08;10.52;;;;;;;;;;5054998;28;20060;-72
2022/05/11 06:04:57;;;;;;;21.10;10.73;;;;;;;;;;5042645;28;20436;-71
2022/05/11 06:08:02;;;;;;;26.58;11.13;;;;;;;;;;5053466;28;20052;-71
2022/05/11 06:11:07;;;;;;;29.15;11.85;;;;;;;;;;5054649;28;20641;-70
2022/05/11 06:14:11;;;;;;;25.00;11.02;;;;;;;;;;5054881;28;20499;-73
2022/05/11 06:17:25;;;;;;;27.25;10.82;;;;;;;;;;5053249;28;20044;-65
2022/05/11 06:20:30;;;;;;;24.63;12.52;;;;;;;;;;5054078;28;20084;-65
2022/05/11 06:23:35;;;;;;;32.90;12.25;;;;;;;;;;5054346;28;20040;-67
2022/05/11 06:26:41;;;;;;;39.95;13.50;;;;;;;;;;5054124;28;20112;-65
2022/05/11 06:29:55;;;;;;;51.58;12.85;;;;;;;;;;5053978;28;20052;-65
2022/05/11 06:33:00;;;;;;;26.83;12.75;;;;;;;;;;5053987;28;20108;-65
2022/05/11 06:36:06;;;;;;;25.05;12.57;;;;;;;;;;5053797;28;20051;-67
2022/05/11 06:39:11;;;;;;;26.55;12.77;;;;;;;;;;5053834;28;20088;-65
2022/05/11 06:42:15;;;;;;;30.63;12.55;;;;;;;;;;5053702;28;20048;-67
2022/05/11 06:45:19;;;;;;;28.58;11.65;;;;;;;;;;5053890;28;20056;-67
2022/05/11 06:48:24;;;;;;;24.75;11.90;;;;;;;;;;5053503;28;20040;-66
2022/05/11 06:51:28;;;;;;;24.23;13.25;;;;;;;;;;5053897;28;20052;-67
2022/05/11 07:01:18;;;;;;;25.73;10.38;;;;;;;;;;5053448;28;20055;-65
2022/05/11 07:04:22;;;;;;;24.13;10.43;;;;;;;;;;5053702;28;20056;-67
2022/05/11 07:07:26;;;;;;;27.42;10.13;;;;;;;;;;5053507;28;20051;-67
2022/05/11 07:10:31;;;;;;;25.63;10.80;;;;;;;;;;5053206;28;20044;-67
2022/05/11 07:13:35;;;;;;;21.58;9.25;;;;;;;;;;5053509;28;20060;-68
2022/05/11 07:16:40;;;;;;;22.77;9.95;;;;;;;;;;5053713;28;20047;-68
2022/05/11 07:19:43;;;;;;;28.05;10.40;;;;;;;;;;5052997;28;20045;-68
2022/05/11 07:22:48;;;;;;;30.10;12.02;;;;;;;;;;5053283;28;20388;-67
2022/05/11 07:25:52;;;;;;;36.53;12.27;;;;;;;;;;5052382;28;20044;-68
2022/05/11 07:28:57;;;;;;;30.55;11.52;;;;;;;;;;5053009;28;20048;-67
2022/05/11 07:32:01;;;;;;;31.13;12.48;;;;;;;;;;5053094;28;20040;-67
2022/05/11 07:35:06;;;;;;;25.52;11.85;;;;;;;;;;5052882;28;20052;-67
2022/05/11 07:38:11;;;;;;;31.63;12.80;;;;;;;;;;5053225;28;20528;-68
2022/05/11 07:41:15;;;;;;;18.75;13.40;;;;;;;;;;5052871;28;20056;-68
2022/05/11 07:44:20;;;;;;;33.70;18.00;;;;;;;;;;5052972;28;20523;-67
2022/05/11 07:47:24;;;;;;;27.02;13.30;;;;;;;;;;5052633;28;20400;-67
2022/05/11 07:50:30;;;;;;;32.92;13.10;;;;;;;;;;5052469;28;20056;-67
2022/05/11 07:53:35;;;;;;;28.15;12.30;;;;;;;;;;5052859;28;20044;-68
2022/05/11 08:00:06;;;;;;;25.08;12.95;;;;;;;;;;5052607;28;20401;-68
2022/05/11 08:03:11;;;;;;;23.73;10.82;;;;;;;;;;5052568;28;20064;-67
2022/05/11 08:06:16;;;;;;;20.05;12.30;;;;;;;;;;5052570;28;20055;-67
2022/05/11 08:09:21;;;;;;;17.52;9.60;;;;;;;;;;5052005;28;20056;-67
2022/05/11 08:12:26;;;;;;;20.60;11.15;;;;;;;;;;5052306;28;20048;-68
2022/05/11 08:15:32;;;;;;;25.05;12.68;;;;;;;;;;5051271;28;20043;-67
2022/05/11 08:18:36;;;;;;;31.92;14.38;;;;;;;;;;5052376;28;20043;-67
2022/05/11 08:21:41;;;;;;;28.55;13.75;;;;;;;;;;5051348;28;20539;-67
2022/05/11 08:24:45;;;;;;;22.48;12.98;;;;;;;;;;5052092;28;20107;-67
2022/05/11 08:27:50;;;;;;;25.40;12.43;;;;;;;;;;5051881;28;20044;-67
2022/05/11 08:34:17;;;;;;;28.83;12.90;;;;;;;;;;5052114;28;20246;-67
2022/05/11 08:37:21;;;;;;;23.23;11.60;;;;;;;;;;5051642;28;20044;-67
2022/05/11 08:40:37;;;;;;;30.85;12.90;;;;;;;;;;5051741;28;20048;-67
2022/05/11 08:43:43;;;;;;;27.73;12.90;;;;;;;;;;5051462;28;20048;-67
2022/05/11 08:47:06;;;;;;;17.00;9.70;;;;;;;;;;5051435;28;20048;-66
2022/05/11 08:50:16;;;;;;;25.30;13.25;;;;;;;;;;5051628;28;20044;-68
2022/05/11 08:53:29;;;;;;;26.70;15.20;;;;;;;;;;5051340;28;20044;-68
2022/05/11 08:56:34;;;;;;;55.78;21.50;;;;;;;;;;5051329;28;20044;-67
2022/05/11 08:59:38;;;;;;;32.35;18.10;;;;;;;;;;5051174;28;20051;-67
2022/05/11 09:02:57;;;;;;;23.25;14.52;;;;;;;;;;5050224;28;20381;-68
2022/05/11 09:06:03;;;;;;;32.65;18.05;;;;;;;;;;5051030;28;20040;-67
2022/05/11 09:09:07;;;;;;;33.53;17.27;;;;;;;;;;5051146;28;20064;-67
2022/05/11 09:12:12;;;;;;;26.65;15.93;;;;;;;;;;5051145;28;20044;-67
2022/05/11 09:15:16;;;;;;;33.10;18.58;;;;;;;;;;5051403;28;20059;-67
2022/05/11 09:18:33;;;;;;;27.55;16.02;;;;;;;;;;5051074;28;20048;-67
2022/05/11 09:21:49;;;;;;;20.77;12.35;;;;;;;;;;5050635;28;20060;-68
2022/05/11 09:25:01;;;;;;;25.67;12.23;;;;;;;;;;5051109;28;20044;-68
2022/05/11 09:28:22;;;;;;;21.15;10.65;;;;;;;;;;5050984;28;20055;-68
2022/05/11 09:31:28;;;;;;;23.48;11.45;;;;;;;;;;5050324;28;20389;-67
2022/05/11 09:34:36;;;;;;;24.42;12.85;;;;;;;;;;5050393;28;20048;-67
2022/05/11 09:37:42;;;;;;;19.77;9.25;;;;;;;;;;5050541;28;20389;-67
2022/05/11 09:40:57;;;;;;;25.55;10.95;;;;;;;;;;5050387;28;20045;-68
2022/05/11 09:44:16;;;;;;;15.70;8.15;;;;;;;;;;5050932;28;20128;-67
2022/05/11 09:47:24;;;;;;;18.48;8.88;;;;;;;;;;5050859;28;20499;-67
2022/05/11 09:50:28;;;;;;;17.17;7.88;;;;;;;;;;5050968;28;20055;-67
2022/05/11 09:53:38;;;;;;;11.98;7.45;;;;;;;;;;5050855;28;20029;-67
2022/05/11 09:57:02;;;;;;;20.92;6.85;;;;;;;;;;5050474;28;20037;-68
2022/05/11 10:00:21;;;;;;;22.17;7.93;;;;;;;;;;5050349;28;20054;-67
2022/05/11 10:03:29;;;;;;;16.77;8.45;;;;;;;;;;5050499;28;20405;-68
2022/05/11 10:06:35;;;;;;;17.73;7.68;;;;;;;;;;5050520;28;20041;-68
2022/05/11 10:09:45;;;;;;;18.73;7.50;;;;;;;;;;5050353;28;20516;-68
2022/05/11 10:12:49;;;;;;;19.13;7.47;;;;;;;;;;5050332;28;20037;-67
2022/05/11 10:22:48;;;;;;;20.95;6.60;;;;;;;;;;5050339;28;20049;-67
2022/05/11 10:26:02;;;;;;;18.42;8.15;;;;;;;;;;5050092;28;20037;-67
2022/05/11 10:29:16;;;;;;;19.30;7.13;;;;;;;;;;5049827;28;20052;-67
2022/05/11 10:32:27;;;;;;;19.10;8.13;;;;;;;;;;5050087;28;20037;-68
2022/05/11 10:35:37;;;;;;;13.30;6.88;;;;;;;;;;5050270;28;20044;-69
2022/05/11 10:39:07;;;;;;;17.75;7.60;;;;;;;;;;5050212;28;20042;-68
2022/05/11 10:42:13;;;;;;;12.52;7.20;;;;;;;;;;5049687;28;20057;-67
2022/05/11 10:45:22;;;;;;;15.57;7.38;;;;;;;;;;5052198;28;20037;-67
2022/05/11 10:48:43;;;;;;;12.60;5.80;;;;;;;;;;5054059;28;20377;-67
2022/05/11 10:51:47;;;;;;;;;;;;;;;;;;5054220;28;20044;-67
2022/05/11 10:55:03;;;;;;;20.30;6.57;;;;;;;;;;5053766;28;19916;-67
2022/05/11 10:58:27;;;;;;;22.95;6.72;;;;;;;;;;5052644;28;20044;-67
2022/05/11 11:01:55;;;;;;;15.23;5.63;;;;;;;;;;5053422;28;20049;-67
2022/05/11 11:05:08;;;;;;;11.07;5.32;;;;;;;;;;5053166;28;20056;-67
2022/05/11 11:08:19;;;;;;;10.60;5.32;;;;;;;;;;5052891;28;20052;-67
2022/05/11 11:11:30;;;;;;;15.55;6.40;;;;;;;;;;5052206;28;20025;-67
2022/05/11 11:14:37;;;;;;;18.52;6.88;;;;;;;;;;5051757;28;20048;-67
2022/05/11 11:17:42;;;;;;;19.90;6.55;;;;;;;;;;5051994;28;20045;-67
2022/05/11 11:20:47;;;;;;;13.55;5.53;;;;;;;;;;5052664;28;20045;-66
2022/05/11 11:24:10;;;;;;;16.40;5.75;;;;;;;;;;5053426;28;20067;-67
2022/05/11 11:27:15;;;;;;;14.90;6.30;;;;;;;;;;5052976;28;20037;-67
2022/05/11 11:30:23;;;;;;;9.77;5.75;;;;;;;;;;5053127;28;20044;-67
2022/05/11 11:33:28;;;;;;;14.18;6.70;;;;;;;;;;5053192;28;20041;-67
2022/05/11 11:36:35;;;;;;;19.30;8.13;;;;;;;;;;5052862;28;20488;-67
2022/05/11 11:39:45;;;;;;;16.98;6.63;;;;;;;;;;5053114;28;20048;-67
2022/05/11 11:42:50;;;;;;;18.35;6.88;;;;;;;;;;5053284;28;20045;-68
2022/05/11 11:45:54;;;;;;;17.48;7.20;;;;;;;;;;5052745;28;20040;-68
2022/05/11 11:49:02;;;;;;;19.90;6.88;;;;;;;;;;5052975;28;20055;-68
2022/05/11 11:52:09;;;;;;;16.15;7.25;;;;;;;;;;5052926;28;20381;-67
2022/05/11 11:55:19;;;;;;;15.85;7.22;;;;;;;;;;5052631;28;20075;-67
2022/05/11 11:58:29;;;;;;;15.35;6.80;;;;;;;;;;5052864;28;20045;-68
2022/05/11 12:01:36;;;;;;;14.73;6.68;;;;;;;;;;5051636;28;20053;-67
2022/05/11 12:04:42;;;;;;;14.73;6.53;;;;;;;;;;5052463;28;20052;-68
2022/05/11 12:18:03;;;;;;;14.55;5.90;;;;;;;;;;5052139;28;20638;-71
2022/05/11 12:21:10;;;;;;;24.10;7.28;;;;;;;;;;5051769;28;20045;-70
2022/05/11 12:24:22;;;;;;;21.25;6.82;;;;;;;;;;5051688;28;20060;-69
2022/05/11 12:27:28;;;;;;;26.23;8.32;;;;;;;;;;5052105;28;20041;-68
2022/05/11 12:30:40;;;;;;;13.57;6.13;;;;;;;;;;5051874;28;20041;-68
2022/05/11 12:33:52;;;;;;;17.52;6.90;;;;;;;;;;5051279;28;20037;-70
2022/05/11 12:36:56;;;;;;;13.15;5.30;;;;;;;;;;5050832;28;20048;-66
2022/05/11 12:40:00;;;;;;;18.15;6.10;;;;;;;;;;5052143;28;20050;-68
2022/05/11 12:43:24;;;;;;;13.07;5.32;;;;;;;;;;5051964;28;20037;-68
2022/05/11 12:46:29;;;;;;;14.70;6.57;;;;;;;;;;5051437;28;20037;-71
2022/05/11 12:49:33;;;;;;;10.70;5.45;;;;;;;;;;5051850;28;20040;-70
2022/05/11 12:52:37;;;;;;;15.63;5.90;;;;;;;;;;5050543;28;20032;-70
2022/05/11 12:55:43;;;;;;;13.00;6.35;;;;;;;;;;5050509;28;20052;-69
2022/05/11 12:58:49;;;;;;;19.52;7.07;;;;;;;;;;5051507;28;20048;-67
2022/05/11 13:02:12;;;;;;;18.42;6.43;;;;;;;;;;5050207;28;20060;-67
2022/05/11 13:05:18;;;;;;;29.05;7.93;;;;;;;;;;5051330;28;20045;-68
2022/05/11 13:08:22;;;;;;;13.18;5.28;;;;;;;;;;5050673;28;20405;-68
2022/05/11 13:11:28;;;;;;;19.13;6.93;;;;;;;;;;5051510;28;20053;-68
2022/05/11 13:14:35;;;;;;;12.80;4.97;;;;;;;;;;5051364;28;20033;-67
2022/05/11 13:17:44;;;;;;;27.52;8.77;;;;;;;;;;5050273;28;20417;-67
2022/05/11 13:20:50;;;;;;;13.98;6.15;;;;;;;;;;5050927;28;20037;-68
2022/05/11 13:23:55;;;;;;;17.90;7.13;;;;;;;;;;5051465;28;20499;-68
2022/05/11 13:26:59;;;;;;;13.38;5.53;;;;;;;;;;5051290;28;20045;-67
2022/05/11 13:30:04;;;;;;;20.27;6.10;;;;;;;;;;5051302;28;20166;-68
2022/05/11 13:33:26;;;;;;;15.52;7.07;;;;;;;;;;5051450;28;20492;-68
2022/05/11 13:36:42;;;;;;;16.48;7.05;;;;;;;;;;5051132;28;20040;-68
2022/05/11 13:39:49;;;;;;;19.50;6.32;;;;;;;;;;5051162;28;20056;-71
2022/05/11 13:42:54;;;;;;;22.80;6.95;;;;;;;;;;5051533;28;20382;-68
2022/05/11 13:46:08;;;;;;;19.45;6.90;;;;;;;;;;5050688;28;20066;-68
2022/05/11 13:49:19;;;;;;;14.98;6.80;;;;;;;;;;5051020;28;20037;-65
2022/05/11 13:52:39;;;;;;;12.20;5.20;;;;;;;;;;5051341;28;20044;-68
2022/05/11 13:56:04;;;;;;;18.20;6.85;;;;;;;;;;5050999;28;20041;-69
2022/05/11 13:59:10;;;;;;;21.17;5.35;;;;;;;;;;5050719;28;20045;-67
2022/05/11 14:02:16;;;;;;;12.50;4.90;;;;;;;;;;5050510;28;20044;-67
2022/05/11 14:05:20;;;;;;;20.80;6.53;;;;;;;;;;5050824;28;20055;-67
2022/05/11 14:08:24;;;;;;;14.27;5.57;;;;;;;;;;5050537;28;20041;-67
2022/05/11 14:11:28;;;;;;;11.40;4.82;;;;;;;;;;5050870;28;20052;-67
2022/05/11 14:14:33;;;;;;;16.85;5.57;;;;;;;;;;5050522;28;20044;-68
2022/05/11 14:17:42;;;;;;;16.65;4.78;;;;;;;;;;5050280;28;20040;-69
2022/05/11 14:20:45;;;;;;;10.55;4.40;;;;;;;;;;5053676;28;20056;-69
2022/05/11 14:23:50;;;;;;;16.45;4.97;;;;;;;;;;5054651;28;20052;-69
2022/05/11 14:26:54;;;;;;;15.82;4.72;;;;;;;;;;5054107;28;20037;-69
2022/05/11 14:29:59;;;;;;;15.00;5.32;;;;;;;;;;5054379;28;20377;-70
2022/05/11 14:33:03;;;;;;;11.48;5.30;;;;;;;;;;5054715;28;20036;-71
2022/05/11 14:36:08;;;;;;;13.95;4.93;;;;;;;;;;5053413;28;20033;-72
2022/05/11 14:39:16;;;;;;;8.65;4.97;;;;;;;;;;5053912;28;20040;-69
2022/05/11 14:42:20;;;;;;;17.85;5.97;;;;;;;;;;5053967;28;20044;-68
2022/05/11 14:45:24;;;;;;;14.32;5.32;;;;;;;;;;5054021;28;20511;-69
2022/05/11 14:48:30;;;;;;;11.05;4.60;;;;;;;;;;5053175;28;20047;-70
2022/05/11 14:51:38;;;;;;;24.85;6.47;;;;;;;;;;5054107;28;20048;-68
2022/05/11 14:54:42;;;;;;;15.02;5.10;;;;;;;;;;5054018;28;20048;-73
2022/05/11 15:04:40;;;;;;;14.48;5.53;;;;;;;;;;5053996;28;20033;-70
2022/05/11 15:07:44;;;;;;;13.10;5.38;;;;;;;;;;5053803;28;20036;-71
2022/05/11 15:13:29;;;;;;;15.95;5.18;;;;;;;;;;5053825;28;20056;-72
2022/05/11 15:14:13;;;;;;;13.60;4.55;;;;;;;;;;5052592;28;20048;-70
2022/05/11 15:17:19;;;;;;;15.80;5.30;;;;;;;;;;5052469;28;20040;-68
2022/05/11 15:20:25;;;;;;;14.68;5.22;;;;;;;;;;5052821;28;20037;-68
2022/05/11 15:23:29;;;;;;;14.18;5.88;;;;;;;;;;5052902;28;20045;-68
2022/05/11 15:26:33;;;;;;;21.58;6.20;;;;;;;;;;5052537;28;20119;-68
2022/05/11 15:29:38;;;;;;;12.30;5.55;;;;;;;;;;5052753;28;20496;-69
2022/05/11 15:32:42;;;;;;;12.40;5.57;;;;;;;;;;5052777;28;20059;-68
2022/05/11 15:35:47;;;;;;;13.98;6.00;;;;;;;;;;5052736;28;20065;-67
2022/05/11 15:38:51;;;;;;;19.15;6.75;;;;;;;;;;5052915;28;20037;-67
2022/05/11 15:41:59;;;;;;;22.63;5.72;;;;;;;;;;5052401;28;20452;-67
2022/05/11 15:45:04;;;;;;;12.90;5.57;;;;;;;;;;5052551;28;20037;-67
2022/05/11 15:48:09;;;;;;;17.35;5.82;;;;;;;;;;5052357;28;20276;-67
2022/05/11 15:51:14;;;;;;;16.00;5.55;;;;;;;;;;5052660;28;20037;-68
2022/05/11 15:54:20;;;;;;;21.20;6.40;;;;;;;;;;5051639;28;20040;-68
2022/05/11 15:57:24;;;;;;;18.42;6.55;;;;;;;;;;5052278;28;20041;-66
2022/05/11 16:00:29;;;;;;;18.35;5.93;;;;;;;;;;5052311;28;20041;-67
2022/05/11 16:03:33;;;;;;;15.63;5.70;;;;;;;;;;5051902;28;20044;-67
2022/05/11 16:06:38;;;;;;;15.70;5.68;;;;;;;;;;5051988;28;20048;-67
2022/05/11 16:09:42;;;;;;;15.65;6.43;;;;;;;;;;5052321;28;20045;-67
2022/05/11 16:12:46;;;;;;;23.15;6.13;;;;;;;;;;5051445;28;20037;-71
2022/05/11 16:15:51;;;;;;;16.05;6.07;;;;;;;;;;5051425;28;20037;-73
2022/05/11 16:22:22;;;;;;;10.70;5.35;;;;;;;;;;5051837;28;20405;-69
2022/05/11 16:25:28;;;;;;;22.23;6.35;;;;;;;;;;5051756;28;20033;-69
2022/05/11 16:28:33;;;;;;;21.65;6.90;;;;;;;;;;5051970;28;20060;-70
2022/05/11 16:31:39;;;;;;;21.23;6.25;;;;;;;;;;5050624;28;20481;-70
2022/05/11 16:34:46;;;;;;;15.23;5.70;;;;;;;;;;5051901;28;20056;-73
2022/05/11 16:37:50;;;;;;;23.88;7.20;;;;;;;;;;5051762;28;20060;-68
2022/05/11 16:40:54;;;;;;;17.25;6.30;;;;;;;;;;5051415;28;20044;-69
2022/05/11 16:43:59;;;;;;;14.77;6.45;;;;;;;;;;5051062;28;20362;-70
2022/05/11 16:47:08;;;;;;;16.13;6.88;;;;;;;;;;5051803;28;20500;-70
2022/05/11 16:50:12;;;;;;;13.63;6.30;;;;;;;;;;5051555;28;20040;-70
2022/05/11 16:53:17;;;;;;;21.60;6.57;;;;;;;;;;5051616;28;20033;-69
2022/05/11 16:56:21;;;;;;;16.95;7.97;;;;;;;;;;5051232;28;20032;-69
2022/05/11 16:59:25;;;;;;;10.57;6.28;;;;;;;;;;5051376;28;20029;-69
2022/05/11 17:02:30;;;;;;;20.02;6.78;;;;;;;;;;5051344;28;20381;-70
2022/05/11 17:05:34;;;;;;;16.58;7.63;;;;;;;;;;5051175;28;20043;-69
2022/05/11 17:08:39;;;;;;;18.90;7.43;;;;;;;;;;5050931;28;20529;-69
2022/05/11 17:11:45;;;;;;;21.70;7.18;;;;;;;;;;5051453;28;20048;-69
2022/05/11 17:14:50;;;;;;;18.35;8.30;;;;;;;;;;5051171;28;20052;-70
2022/05/11 17:17:54;;;;;;;14.32;7.80;;;;;;;;;;5050197;28;20048;-69
2022/05/11 17:20:59;;;;;;;21.75;9.27;;;;;;;;;;5050683;28;20062;-69
2022/05/11 17:24:04;;;;;;;19.88;8.43;;;;;;;;;;5051004;28;20049;-69
2022/05/11 17:27:09;;;;;;;18.15;8.27;;;;;;;;;;5050158;28;20048;-69
2022/05/11 17:30:13;;;;;;;23.25;7.75;;;;;;;;;;5050487;28;20049;-69
2022/05/11 17:33:17;;;;;;;26.48;9.77;;;;;;;;;;5050849;28;20048;-69
2022/05/11 17:36:21;;;;;;;22.10;8.30;;;;;;;;;;5050958;28;20049;-69
2022/05/11 17:39:26;;;;;;;19.83;8.45;;;;;;;;;;5050607;28;20036;-69
2022/05/11 17:42:30;;;;;;;24.98;9.85;;;;;;;;;;5050622;28;20049;-70
2022/05/11 17:45:35;;;;;;;21.70;9.88;;;;;;;;;;5050628;28;20397;-70
2022/05/11 17:48:39;;;;;;;15.55;9.68;;;;;;;;;;5050702;28;20413;-69
2022/05/11 17:51:43;;;;;;;27.73;10.85;;;;;;;;;;5050508;28;20045;-69
2022/05/11 17:54:48;;;;;;;22.10;10.48;;;;;;;;;;5049429;28;20056;-69
2022/05/11 17:57:53;;;;;;;22.38;10.80;;;;;;;;;;5050839;28;20504;-69
2022/05/11 18:00:57;;;;;;;23.50;9.52;;;;;;;;;;5050308;28;20059;-69
2022/05/11 18:04:01;;;;;;;31.83;10.82;;;;;;;;;;5050448;28;20052;-69
2022/05/11 18:07:07;;;;;;;22.75;9.45;;;;;;;;;;5050495;28;20389;-69
2022/05/11 18:10:13;;;;;;;19.88;9.40;;;;;;;;;;5050204;28;20504;-69
2022/05/11 18:13:18;;;;;;;21.40;9.98;;;;;;;;;;5049729;28;20058;-69
2022/05/11 18:16:22;;;;;;;29.17;11.20;;;;;;;;;;5048675;28;20033;-69
2022/05/11 18:19:26;;;;;;;21.02;10.63;;;;;;;;;;5049204;28;20040;-69
2022/05/11 18:22:31;;;;;;;21.88;10.65;;;;;;;;;;5049455;28;20404;-69
2022/05/11 18:25:36;;;;;;;25.77;10.50;;;;;;;;;;5050390;28;20112;-69
2022/05/11 18:28:40;;;;;;;18.80;9.63;;;;;;;;;;5050397;28;20051;-70
2022/05/11 18:31:44;;;;;;;28.25;11.73;;;;;;;;;;5050901;28;20496;-69
2022/05/11 18:34:49;;;;;;;26.63;10.07;;;;;;;;;;5050175;28;20432;-69
2022/05/11 18:37:53;;;;;;;22.95;10.63;;;;;;;;;;5049960;28;20499;-69
2022/05/11 18:40:58;;;;;;;24.38;10.93;;;;;;;;;;5050064;28;20048;-69
2022/05/11 18:44:02;;;;;;;21.33;10.45;;;;;;;;;;5050400;28;20318;-70
2022/05/11 18:47:06;;;;;;;25.60;11.43;;;;;;;;;;5050057;28;20044;-69
2022/05/11 18:50:11;;;;;;;28.52;13.02;;;;;;;;;;5049970;28;20508;-70
2022/05/11 18:53:15;;;;;;;21.10;11.25;;;;;;;;;;5050345;28;20040;-69
2022/05/11 18:56:20;;;;;;;24.17;11.57;;;;;;;;;;5050012;28;20048;-70
2022/05/11 18:59:24;;;;;;;33.38;13.27;;;;;;;;;;5050349;28;20044;-70
2022/05/11 19:02:28;;;;;;;22.98;11.60;;;;;;;;;;5050073;28;20052;-70
2022/05/11 19:05:33;;;;;;;27.10;12.30;;;;;;;;;;5050496;28;20056;-70
2022/05/11 19:08:37;;;;;;;27.38;12.60;;;;;;;;;;5053368;28;20055;-70